Time;durP1;ratioP1;P1;durP2;ratioP2;P2;SDS_P1;SDS_P2;PMS_P1;PMS_P2;Temp;Humidity;BMP_temperature;BMP_pressure;BME280_temperature;BME280_humidity;BME280_pressure;Samples;Min_cycle;Max_cycle;Signal;HPM_P1;HPM_P2
2023/05/04 00:01:25;;;;;;;3.13;2.87;;;;;;;;;;4920234;29;20772;-92
2023/05/04 00:04:02;;;;;;;7.30;3.33;;;;;;;;;;4919746;29;20267;-93
2023/05/04 00:06:42;;;;;;;3.60;2.87;;;;;;;;;;4918860;29;20204;-92
2023/05/04 00:09:12;;;;;;;3.40;2.33;;;;;;;;;;4919985;29;20334;-92
2023/05/04 00:11:42;;;;;;;2.47;2.27;;;;;;;;;;4920038;29;20243;-90
2023/05/04 00:14:13;;;;;;;3.57;1.47;;;;;;;;;;4920729;29;20212;-92
2023/05/04 00:16:50;;;;;;;2.37;2.10;;;;;;;;;;4920624;29;20602;-92
2023/05/04 00:19:35;;;;;;;6.93;2.47;;;;;;;;;;4927351;29;20235;-93
2023/05/04 00:22:11;;;;;;;2.27;1.50;;;;;;;;;;4937895;29;20218;-92
2023/05/04 00:24:46;;;;;;;3.63;3.33;;;;;;;;;;4924893;29;20215;-91
2023/05/04 00:27:26;;;;;;;6.87;2.50;;;;;;;;;;4938474;29;20210;-93
2023/05/04 00:29:56;;;;;;;3.40;2.53;;;;;;;;;;4936870;29;20306;-92
2023/05/04 00:32:26;;;;;;;1.73;1.67;;;;;;;;;;4938075;29;20206;-92
2023/05/04 00:35:01;;;;;;;2.50;2.40;;;;;;;;;;4938107;29;20313;-92
2023/05/04 00:37:37;;;;;;;3.70;2.00;;;;;;;;;;4939254;29;20235;-90
2023/05/04 00:40:11;;;;;;;2.47;2.27;;;;;;;;;;4941494;29;20223;-90
2023/05/04 00:42:46;;;;;;;3.67;2.47;;;;;;;;;;4942913;29;20216;-89
2023/05/04 00:45:17;;;;;;;4.50;2.60;;;;;;;;;;4950319;29;20203;-91
2023/05/04 00:47:52;;;;;;;8.27;3.20;;;;;;;;;;4941782;29;20302;-94
2023/05/04 00:50:26;;;;;;;4.90;2.40;;;;;;;;;;4938861;29;20313;-92
2023/05/04 00:53:21;;;;;;;2.60;2.40;;;;;;;;;;4938974;29;20214;-93
2023/05/04 00:55:55;;;;;;;4.23;1.43;;;;;;;;;;4939564;29;20865;-91
2023/05/04 01:01:12;;;;;;;2.33;2.10;;;;;;;;;;4935223;29;20287;-91
2023/05/04 01:03:46;;;;;;;3.03;1.97;;;;;;;;;;4938813;29;20194;-91
2023/05/04 01:06:23;;;;;;;2.50;2.30;;;;;;;;;;4942477;29;20199;-91
2023/05/04 01:09:09;;;;;;;3.60;3.23;;;;;;;;;;4941997;29;20238;-91
2023/05/04 01:11:42;;;;;;;5.80;2.63;;;;;;;;;;4943798;29;20271;-91
2023/05/04 01:17:00;;;;;;;2.33;2.20;;;;;;;;;;4961090;29;20204;-91
2023/05/04 01:19:31;;;;;;;3.23;3.00;;;;;;;;;;4951346;29;20261;-91
2023/05/04 01:22:07;;;;;;;5.13;3.50;;;;;;;;;;4943520;29;20209;-93
2023/05/04 01:24:38;;;;;;;5.13;2.83;;;;;;;;;;4949292;29;20207;-92
2023/05/04 01:27:09;;;;;;;2.90;2.30;;;;;;;;;;4949916;29;20203;-92
2023/05/04 01:29:44;;;;;;;2.33;2.07;;;;;;;;;;4940959;29;20231;-91
2023/05/04 01:32:13;;;;;;;3.07;2.80;;;;;;;;;;4940355;29;20207;-94
2023/05/04 01:34:42;;;;;;;3.50;1.70;;;;;;;;;;4940708;29;20195;-92
2023/05/04 01:37:23;;;;;;;2.97;2.10;;;;;;;;;;4941524;29;20231;-93
2023/05/04 01:39:58;;;;;;;4.67;3.13;;;;;;;;;;4940846;29;20207;-92
2023/05/04 01:42:29;;;;;;;4.20;2.73;;;;;;;;;;4940622;29;20203;-91
2023/05/04 01:45:02;;;;;;;10.47;3.33;;;;;;;;;;4940413;29;20204;-92
2023/05/04 01:47:32;;;;;;;6.80;3.00;;;;;;;;;;4939869;29;20207;-92
2023/05/04 01:50:05;;;;;;;5.23;2.40;;;;;;;;;;4940743;29;20250;-91
2023/05/04 01:52:37;;;;;;;5.90;2.97;;;;;;;;;;4941058;29;20207;-93
2023/05/04 01:55:10;;;;;;;4.93;3.13;;;;;;;;;;4940597;29;20200;-93
2023/05/04 01:57:40;;;;;;;2.67;2.27;;;;;;;;;;4941763;29;20257;-91
2023/05/04 02:00:14;;;;;;;2.20;2.07;;;;;;;;;;4940742;29;20261;-91
2023/05/04 02:02:50;;;;;;;2.27;2.10;;;;;;;;;;4940813;29;20275;-91
2023/05/04 02:05:29;;;;;;;3.93;2.93;;;;;;;;;;4939439;29;20203;-93
2023/05/04 02:08:10;;;;;;;2.60;2.40;;;;;;;;;;4939792;29;20738;-91
2023/05/04 02:10:42;;;;;;;8.97;2.77;;;;;;;;;;4939175;29;20253;-92
2023/05/04 02:13:14;;;;;;;3.87;2.20;;;;;;;;;;4939818;29;20207;-92
2023/05/04 02:15:56;;;;;;;2.53;2.20;;;;;;;;;;4938704;29;20203;-94
2023/05/04 02:18:27;;;;;;;3.57;2.30;;;;;;;;;;4941091;29;20583;-92
2023/05/04 02:21:00;;;;;;;2.03;1.47;;;;;;;;;;4941682;29;20676;-93
2023/05/04 02:23:41;;;;;;;2.50;2.27;;;;;;;;;;4941632;29;20262;-94
2023/05/04 02:26:10;;;;;;;2.03;1.73;;;;;;;;;;4954944;29;20186;-92
2023/05/04 02:28:39;;;;;;;2.10;1.77;;;;;;;;;;4960294;29;20187;-91
2023/05/04 02:31:13;;;;;;;3.43;2.93;;;;;;;;;;4960192;29;20195;-92
2023/05/04 02:33:44;;;;;;;1.80;1.70;;;;;;;;;;4960483;29;20215;-92
2023/05/04 02:36:15;;;;;;;1.77;1.67;;;;;;;;;;4960298;29;20172;-93
2023/05/04 02:38:50;;;;;;;3.60;1.97;;;;;;;;;;4960070;29;20219;-91
2023/05/04 02:41:19;;;;;;;2.13;1.97;;;;;;;;;;4960264;29;20238;-91
2023/05/04 02:43:56;;;;;;;1.70;1.63;;;;;;;;;;4960022;29;20223;-91
2023/05/04 02:46:32;;;;;;;2.60;2.50;;;;;;;;;;4960341;29;20250;-91
2023/05/04 02:49:05;;;;;;;0.80;0.80;;;;;;;;;;4959925;29;20298;-92
2023/05/04 02:51:38;;;;;;;5.40;1.40;;;;;;;;;;4959987;29;20195;-91
2023/05/04 02:54:14;;;;;;;3.57;1.83;;;;;;;;;;4959500;29;20196;-91
2023/05/04 02:56:53;;;;;;;2.50;1.90;;;;;;;;;;4959965;29;20219;-91
2023/05/04 02:59:34;;;;;;;1.37;1.27;;;;;;;;;;4955811;29;20598;-92
2023/05/04 03:05:04;;;;;;;;;;;;;;;;;;;;;
2023/05/04 03:10:45;;;;;;;0.67;0.67;;;;;;;;;;4938556;29;20319;-91
2023/05/04 03:13:18;;;;;;;1.60;1.27;;;;;;;;;;4933662;29;20191;-91
2023/05/04 03:15:54;;;;;;;1.53;1.43;;;;;;;;;;4953526;29;20231;-91
2023/05/04 03:18:33;;;;;;;14.23;1.63;;;;;;;;;;4952444;29;20214;-92
2023/05/04 03:21:04;;;;;;;2.87;1.23;;;;;;;;;;4952273;29;20218;-92
2023/05/04 03:23:39;;;;;;;0.77;0.73;;;;;;;;;;4951413;29;20247;-92
2023/05/04 03:26:28;;;;;;;1.33;1.23;;;;;;;;;;4951996;29;20233;-93
2023/05/04 03:29:17;;;;;;;1.67;1.10;;;;;;;;;;4945926;29;20208;-89
2023/05/04 03:34:41;;;;;;;2.37;1.53;;;;;;;;;;4938727;29;20214;-94
2023/05/04 03:37:31;;;;;;;2.77;1.13;;;;;;;;;;4939501;29;20195;-93
2023/05/04 03:40:13;;;;;;;1.07;1.07;;;;;;;;;;4941760;29;20231;-92
2023/05/04 03:45:44;;;;;;;1.37;1.27;;;;;;;;;;4913011;29;20293;-91
2023/05/04 03:51:49;;;;;;;1.13;0.93;;;;;;;;;;4861113;29;20297;-91
2023/05/04 03:54:20;;;;;;;3.10;1.53;;;;;;;;;;4860759;29;20206;-93
2023/05/04 03:56:50;;;;;;;1.33;1.10;;;;;;;;;;4922432;29;20642;-92
2023/05/04 03:59:25;;;;;;;1.83;0.57;;;;;;;;;;4940176;29;20535;-94
2023/05/04 04:02:19;;;;;;;0.77;0.77;;;;;;;;;;4944911;29;20199;-91
2023/05/04 04:04:55;;;;;;;1.60;0.97;;;;;;;;;;4950241;29;20223;-94
2023/05/04 04:07:47;;;;;;;1.10;1.10;;;;;;;;;;4939043;29;20298;-92
2023/05/04 04:10:33;;;;;;;2.40;1.27;;;;;;;;;;4942132;29;20281;-91
2023/05/04 04:13:10;;;;;;;0.87;0.83;;;;;;;;;;4958418;29;20184;-93
2023/05/04 04:15:54;;;;;;;1.60;1.40;;;;;;;;;;4944529;29;20207;-91
2023/05/04 04:18:34;;;;;;;1.17;1.03;;;;;;;;;;4938534;29;20673;-93
2023/05/04 04:21:09;;;;;;;1.77;1.67;;;;;;;;;;4940142;29;20205;-94
2023/05/04 04:23:56;;;;;;;3.17;1.87;;;;;;;;;;4937082;29;20227;-93
2023/05/04 04:26:45;;;;;;;1.30;1.30;;;;;;;;;;4939217;29;20291;-92
2023/05/04 04:29:29;;;;;;;1.83;0.70;;;;;;;;;;4939645;29;20259;-93
2023/05/04 04:32:13;;;;;;;2.60;2.40;;;;;;;;;;4938566;29;20202;-93
2023/05/04 04:34:50;;;;;;;0.43;0.43;;;;;;;;;;4941119;29;20258;-92
2023/05/04 04:37:29;;;;;;;;;;;;;;;;;;;;;
2023/05/04 04:40:33;;;;;;;1.67;1.67;;;;;;;;;;4939215;29;20215;-91
2023/05/04 04:46:00;;;;;;;0.57;0.57;;;;;;;;;;4937113;29;20242;-93
2023/05/04 04:49:07;;;;;;;;;;;;;;;;;;;;;
2023/05/04 04:52:05;;;;;;;;;;;;;;;;;;;;;
2023/05/04 04:54:54;;;;;;;0.67;0.67;;;;;;;;;;4942490;29;20563;-92
2023/05/04 04:57:51;;;;;;;1.33;1.20;;;;;;;;;;4946829;29;20211;-92
2023/05/04 05:06:43;;;;;;;1.20;0.93;;;;;;;;;;4929032;29;20200;-93
2023/05/04 05:09:21;;;;;;;0.50;0.50;;;;;;;;;;4923133;29;20611;-94
2023/05/04 05:12:06;;;;;;;0.83;0.83;;;;;;;;;;4932471;29;20231;-94
2023/05/04 05:14:53;;;;;;;2.37;1.83;;;;;;;;;;4939868;29;20617;-94
2023/05/04 05:17:39;;;;;;;0.77;0.77;;;;;;;;;;4935944;29;20217;-93
2023/05/04 05:26:11;;;;;;;;;;;;;;;;;;;;;
2023/05/04 05:29:06;;;;;;;2.30;1.43;;;;;;;;;;4910963;29;20291;-93
2023/05/04 05:31:47;;;;;;;1.60;1.50;;;;;;;;;;4920519;29;20235;-94
2023/05/04 05:34:41;;;;;;;3.50;2.33;;;;;;;;;;4919987;29;20669;-94
2023/05/04 05:40:12;;;;;;;1.53;1.13;;;;;;;;;;4933079;29;20207;-92
2023/05/04 05:54:47;;;;;;;3.37;2.20;;;;;;;;;;4948808;29;20246;-94
2023/05/04 05:57:40;;;;;;;2.60;2.03;;;;;;;;;;4944248;29;20367;-93
2023/05/04 06:00:56;;;;;;;1.90;1.60;;;;;;;;;;4945227;29;20227;-95
2023/05/04 06:06:32;;;;;;;2.17;1.97;;;;;;;;;;4875316;29;20278;-90
2023/05/04 06:09:16;;;;;;;1.33;1.23;;;;;;;;;;4903222;29;20207;-94
2023/05/04 06:12:00;;;;;;;5.70;2.20;;;;;;;;;;4923630;29;20268;-94
2023/05/04 06:14:47;;;;;;;4.30;2.17;;;;;;;;;;4923879;29;20204;-93
2023/05/04 06:17:25;;;;;;;2.30;1.87;;;;;;;;;;4923065;29;20196;-93
2023/05/04 06:20:05;;;;;;;1.47;1.37;;;;;;;;;;4922942;29;20210;-93
2023/05/04 06:22:34;;;;;;;1.93;1.80;;;;;;;;;;4923692;29;20243;-92
2023/05/04 06:25:25;;;;;;;3.73;1.77;;;;;;;;;;4922818;29;20716;-93
2023/05/04 06:28:02;;;;;;;2.20;2.00;;;;;;;;;;4924163;29;20220;-94
2023/05/04 06:30:51;;;;;;;;;;;;;;;;;;;;;
2023/05/04 06:33:24;;;;;;;1.93;1.27;;;;;;;;;;4925168;29;20611;-94
2023/05/04 06:35:57;;;;;;;1.87;1.13;;;;;;;;;;4924332;29;20236;-95
2023/05/04 06:38:41;;;;;;;1.33;1.23;;;;;;;;;;4931239;29;20216;-93
2023/05/04 06:41:26;;;;;;;1.90;1.30;;;;;;;;;;4938380;29;20218;-94
2023/05/04 06:43:58;;;;;;;6.80;1.93;;;;;;;;;;4945905;29;20202;-94
2023/05/04 06:46:29;;;;;;;3.27;1.33;;;;;;;;;;4942861;29;20651;-93
2023/05/04 06:49:00;;;;;;;2.07;1.37;;;;;;;;;;4942075;29;20233;-94
2023/05/04 06:51:44;;;;;;;2.63;1.30;;;;;;;;;;4942952;29;20238;-94
2023/05/04 06:54:42;;;;;;;2.77;1.27;;;;;;;;;;4927680;29;20199;-95
2023/05/04 06:57:33;;;;;;;1.40;1.13;;;;;;;;;;4944322;29;20210;-96
2023/05/04 07:00:29;;;;;;;1.10;1.10;;;;;;;;;;4947053;29;20273;-94
2023/05/04 07:03:32;;;;;;;0.83;0.83;;;;;;;;;;4947577;29;20219;-94
2023/05/04 07:09:16;;;;;;;1.43;0.97;;;;;;;;;;5004743;23;20718;-92
2023/05/04 07:11:51;;;;;;;0.77;0.77;;;;;;;;;;4943106;29;20242;-93
2023/05/04 07:14:21;;;;;;;1.53;1.17;;;;;;;;;;4943748;29;20261;-93
2023/05/04 07:19:57;;;;;;;0.90;0.90;;;;;;;;;;4942722;29;20386;-93
2023/05/04 07:22:33;;;;;;;1.40;1.30;;;;;;;;;;4943081;29;20199;-94
2023/05/04 07:25:27;;;;;;;2.93;1.50;;;;;;;;;;4956081;29;20207;-93
2023/05/04 07:28:16;;;;;;;2.30;2.10;;;;;;;;;;4949320;29;20211;-93
2023/05/04 07:30:57;;;;;;;2.27;0.90;;;;;;;;;;4945623;29;20231;-92
2023/05/04 07:33:43;;;;;;;2.37;1.53;;;;;;;;;;4957562;29;20203;-92
2023/05/04 07:36:27;;;;;;;2.43;1.10;;;;;;;;;;4950516;29;20211;-93
2023/05/04 07:39:23;;;;;;;;;;;;;;;;;;;;;
2023/05/04 07:42:07;;;;;;;1.53;1.43;;;;;;;;;;4931688;29;20243;-92
2023/05/04 07:44:47;;;;;;;1.40;1.30;;;;;;;;;;4942219;29;20282;-92
2023/05/04 07:47:29;;;;;;;6.43;1.53;;;;;;;;;;4938379;29;20624;-93
2023/05/04 07:53:19;;;;;;;2.27;1.33;;;;;;;;;;4928919;29;20262;-93
2023/05/04 07:55:56;;;;;;;2.17;2.00;;;;;;;;;;4947682;29;20226;-92
2023/05/04 07:58:38;;;;;;;1.70;1.60;;;;;;;;;;4934903;29;20244;-93
2023/05/04 08:04:28;;;;;;;1.47;1.37;;;;;;;;;;4930258;29;20621;-94
2023/05/04 08:56:42;;;;;;;2.33;1.47;;;;;;;;;;4801418;29;20374;-94
2023/05/04 08:59:48;;;;;;;1.40;1.30;;;;;;;;;;4753605;30;20246;-92
2023/05/04 09:02:40;;;;;;;1.70;1.43;;;;;;;;;;4736790;30;20723;-93
2023/05/04 09:05:39;;;;;;;;;;;;;;;;;;;;;
2023/05/04 09:08:24;;;;;;;2.70;2.00;;;;;;;;;;4780074;30;20335;-94
2023/05/04 09:11:24;;;;;;;3.00;2.07;;;;;;;;;;4851715;29;20353;-93
2023/05/04 09:23:14;;;;;;;2.83;1.60;;;;;;;;;;4873463;29;20242;-93
2023/05/04 09:26:04;;;;;;;1.50;1.40;;;;;;;;;;4883571;29;20255;-92
2023/05/04 09:31:52;;;;;;;2.93;1.77;;;;;;;;;;4948049;29;20303;-93
2023/05/04 09:34:25;;;;;;;4.13;2.13;;;;;;;;;;4958027;29;20271;-91
2023/05/04 10:45:11;;;;;;;3.23;2.30;;;;;;;;;;4772412;30;20252;-91
2023/05/04 10:48:06;;;;;;;4.20;2.80;;;;;;;;;;4902709;29;20671;-93
2023/05/04 10:51:04;;;;;;;1.97;1.87;;;;;;;;;;4895459;29;20232;-94
2023/05/04 10:56:59;;;;;;;;;;;;;;;;;;;;;
2023/05/04 11:02:51;;;;;;;6.72;4.93;;;;;;;;;;4917971;29;20240;-93
2023/05/04 11:51:23;;;;;;;2.83;2.60;;;;;;;;;;4863083;29;20230;-92
2023/05/04 11:54:35;;;;;;;3.40;2.90;;;;;;;;;;4871849;29;20680;-91
2023/05/04 11:57:23;;;;;;;2.97;2.30;;;;;;;;;;4875208;29;20272;-93
2023/05/04 12:36:35;;;;;;;3.80;2.70;;;;;;;;;;4936611;29;20231;-93
2023/05/04 13:04:30;;;;;;;;;;;;;;;;;;;;;
2023/05/04 13:07:23;;;;;;;3.50;3.20;;;;;;;;;;4876030;29;20770;-95
